createdAt,value
2019-03-24T00:03:35.752Z,4.80
2019-03-24T00:08:36.881Z,5.60
2019-03-24T00:13:39.932Z,4.70
2019-03-24T00:18:41.128Z,4.70
2019-03-24T00:23:44.152Z,5.80
2019-03-24T00:28:45.264Z,5.80
2019-03-24T00:33:46.409Z,4.70
2019-03-24T00:38:47.562Z,7.00
2019-03-24T00:43:48.702Z,6.00
2019-03-24T00:48:49.793Z,4.50
2019-03-24T00:53:50.933Z,6.30
2019-03-24T00:58:52.077Z,4.20
2019-03-24T01:03:53.165Z,4.30
2019-03-24T01:08:54.524Z,4.10
2019-03-24T01:13:55.624Z,4.00
2019-03-24T01:18:56.719Z,4.20
2019-03-24T01:23:57.820Z,3.90
2019-03-24T01:28:58.920Z,4.10
2019-03-24T01:34:00.019Z,4.80
2019-03-24T01:39:01.111Z,3.90
2019-03-24T01:44:02.349Z,4.20
2019-03-24T01:49:03.551Z,3.60
2019-03-24T01:54:04.840Z,3.50
2019-03-24T01:59:06.472Z,3.50
2019-03-24T02:04:07.585Z,3.50
2019-03-24T02:09:08.911Z,3.50
2019-03-24T02:14:10.083Z,3.60
2019-03-24T02:19:11.184Z,3.40
2019-03-24T02:24:12.293Z,5.20
2019-03-24T02:29:13.390Z,3.80
2019-03-24T02:34:14.480Z,3.20
2019-03-24T02:39:15.673Z,3.30
2019-03-24T02:44:16.789Z,3.00
2019-03-24T02:49:17.882Z,3.00
2019-03-24T02:54:19.080Z,3.70
2019-03-24T02:59:20.181Z,3.40
2019-03-24T03:04:21.275Z,3.20
2019-03-24T03:09:22.374Z,2.70
2019-03-24T03:14:23.479Z,3.40
2019-03-24T03:19:24.571Z,2.70
2019-03-24T03:24:25.672Z,3.20
2019-03-24T03:29:26.762Z,2.60
2019-03-24T03:34:28.061Z,2.60
2019-03-24T03:39:29.153Z,2.40
2019-03-24T03:44:30.280Z,2.90
2019-03-24T03:49:32.868Z,2.20
2019-03-24T03:54:35.634Z,2.20
2019-03-24T03:59:36.734Z,2.20
2019-03-24T04:04:37.833Z,2.80
2019-03-24T04:09:40.181Z,3.20
2019-03-24T04:14:41.270Z,2.10
2019-03-24T04:19:42.373Z,2.20
2019-03-24T04:24:43.468Z,2.10
2019-03-24T04:29:44.665Z,2.40
2019-03-24T04:34:45.758Z,2.40
2019-03-24T04:39:46.862Z,2.40
2019-03-24T04:44:47.981Z,2.50
2019-03-24T04:49:49.072Z,2.50
2019-03-24T04:54:50.190Z,2.40
2019-03-24T04:59:51.316Z,3.50
2019-03-24T05:04:54.339Z,2.20
2019-03-24T05:09:55.549Z,2.10
2019-03-24T05:14:56.648Z,2.10
2019-03-24T05:19:57.755Z,2.50
2019-03-24T05:24:58.887Z,1.90
2019-03-24T05:29:59.983Z,1.80
2019-03-24T05:35:01.102Z,1.80
2019-03-24T05:40:03.730Z,1.70
2019-03-24T05:45:05.551Z,1.70
2019-03-24T05:50:06.954Z,1.80
2019-03-24T05:55:08.630Z,2.90
2019-03-24T06:00:10.454Z,2.00
2019-03-24T06:05:11.561Z,2.20
2019-03-24T06:10:12.655Z,2.70
2019-03-24T06:15:13.849Z,2.50
2019-03-24T06:20:15.936Z,2.70
2019-03-24T06:25:18.390Z,2.80
2019-03-24T06:30:19.479Z,3.10
2019-03-24T06:35:20.580Z,4.20
2019-03-24T06:40:21.686Z,4.60
2019-03-24T06:45:28.493Z,4.70
2019-03-24T06:50:25.800Z,4.20
2019-03-24T06:55:27.062Z,5.00
2019-03-24T07:00:28.178Z,5.20
2019-03-24T07:05:29.284Z,5.10
2019-03-24T07:10:32.206Z,5.40
2019-03-24T07:15:33.394Z,6.00
2019-03-24T07:20:34.728Z,6.90
2019-03-24T07:25:36.129Z,6.50
2019-03-24T07:30:37.255Z,6.80
2019-03-24T07:35:41.424Z,7.00
2019-03-24T07:40:42.664Z,7.50
2019-03-24T07:45:43.880Z,7.80
2019-03-24T07:50:45.003Z,8.30
2019-03-24T07:55:46.165Z,8.30
2019-03-24T08:00:47.329Z,8.30
2019-03-24T08:05:48.511Z,8.60
2019-03-24T08:10:49.603Z,8.80
2019-03-24T08:15:50.704Z,9.20
2019-03-24T08:20:51.824Z,9.90
2019-03-24T08:25:52.932Z,11.00
2019-03-24T08:30:54.080Z,11.60
2019-03-24T08:35:55.309Z,12.60
2019-03-24T08:40:56.519Z,13.70
2019-03-24T08:45:58.664Z,14.40
2019-03-24T08:50:59.789Z,15.30
2019-03-24T08:56:00.884Z,15.20
2019-03-24T09:01:02.015Z,15.40
2019-03-24T09:06:03.216Z,15.40
2019-03-24T09:11:04.480Z,15.70
2019-03-24T09:16:05.576Z,16.90
2019-03-24T09:21:07.587Z,17.00
2019-03-24T09:26:10.251Z,18.60
2019-03-24T09:31:11.370Z,17.50
2019-03-24T09:36:12.479Z,18.70
2019-03-24T09:41:16.413Z,18.20
2019-03-24T09:46:17.511Z,19.20
2019-03-24T09:51:21.050Z,19.40
2019-03-24T09:56:21.648Z,20.30
2019-03-24T10:01:22.910Z,19.80
2019-03-24T10:06:24.019Z,20.50
2019-03-24T10:11:29.781Z,20.50
2019-03-24T10:16:31.100Z,20.30
2019-03-24T10:21:32.287Z,20.30
2019-03-24T10:26:33.456Z,20.60
2019-03-24T10:31:34.549Z,20.80
2019-03-24T10:36:35.650Z,21.80
2019-03-24T10:41:36.854Z,22.40
2019-03-24T10:46:40.363Z,23.20
2019-03-24T10:51:41.637Z,22.40
2019-03-24T10:56:45.454Z,21.20
2019-03-24T11:01:46.672Z,21.90
2019-03-24T11:06:47.790Z,23.10
2019-03-24T11:11:48.914Z,22.90
2019-03-24T11:16:50.147Z,22.90
2019-03-24T11:21:53.610Z,23.20
2019-03-24T11:26:54.879Z,23.70
2019-03-24T11:31:57.970Z,23.30
2019-03-24T11:36:59.182Z,24.20
2019-03-24T11:42:03.232Z,23.90
2019-03-24T11:47:04.370Z,24.10
2019-03-24T11:52:05.576Z,24.00
2019-03-24T11:57:06.667Z,24.00
2019-03-24T12:02:07.794Z,24.20
2019-03-24T12:07:08.902Z,23.90
2019-03-24T12:12:10.110Z,23.30
2019-03-24T12:17:11.239Z,24.40
2019-03-24T12:22:12.374Z,23.90
2019-03-24T12:27:13.596Z,23.40
2019-03-24T12:32:15.662Z,24.00
2019-03-24T12:37:16.920Z,25.00
2019-03-24T12:42:18.016Z,24.20
2019-03-24T12:47:19.265Z,24.40
2019-03-24T12:52:20.369Z,25.50
2019-03-24T12:57:21.588Z,24.60
2019-03-24T13:02:22.891Z,24.00
2019-03-24T13:07:26.332Z,25.10
2019-03-24T13:12:27.436Z,25.60
2019-03-24T13:17:28.667Z,26.40
2019-03-24T13:22:29.874Z,25.90
2019-03-24T13:27:32.402Z,27.40
2019-03-24T13:37:44.376Z,26.70
2019-03-24T13:42:47.377Z,25.90
2019-03-24T13:47:49.652Z,26.10
2019-03-24T13:52:50.955Z,25.90
2019-03-24T13:57:52.070Z,25.40
2019-03-24T14:02:53.188Z,24.90
2019-03-24T14:07:54.304Z,25.20
2019-03-24T14:12:55.514Z,25.00
2019-03-24T14:17:56.656Z,24.70
2019-03-24T14:22:57.776Z,24.30
2019-03-24T14:27:58.890Z,24.90
2019-03-24T14:33:00.033Z,25.60
2019-03-24T14:38:01.151Z,25.00
2019-03-24T14:43:03.576Z,24.70
2019-03-24T14:48:04.823Z,23.70
2019-03-24T14:53:06.307Z,22.00
2019-03-24T14:58:07.569Z,20.40
2019-03-24T15:03:08.972Z,19.20
2019-03-24T15:08:10.275Z,19.00
2019-03-24T15:13:11.386Z,19.20
2019-03-24T15:18:12.629Z,18.80
2019-03-24T15:23:13.787Z,18.60
2019-03-24T15:28:14.989Z,17.10
2019-03-24T15:33:16.133Z,16.70
2019-03-24T15:38:17.251Z,16.70
2019-03-24T15:43:18.424Z,16.70
2019-03-24T15:48:19.661Z,16.60
2019-03-24T15:53:20.861Z,16.60
2019-03-24T15:58:23.457Z,16.30
2019-03-24T16:03:24.561Z,15.80
2019-03-24T16:08:26.008Z,16.00
2019-03-24T16:13:27.237Z,15.70
2019-03-24T16:18:28.334Z,15.20
2019-03-24T16:23:31.674Z,14.80
2019-03-24T16:28:32.873Z,14.60
2019-03-24T16:33:34.187Z,14.80
2019-03-24T16:38:36.080Z,15.10
2019-03-24T16:43:37.289Z,14.70
2019-03-24T16:48:38.434Z,14.40
2019-03-24T16:53:39.654Z,14.00
2019-03-24T16:58:40.776Z,13.80
2019-03-24T17:03:41.908Z,13.70
2019-03-24T17:08:43.194Z,13.60
2019-03-24T17:13:44.300Z,13.50
2019-03-24T17:19:05.400Z,13.40
2019-03-24T17:24:06.529Z,13.20
2019-03-24T17:29:07.671Z,13.10
2019-03-24T17:34:09.679Z,12.80
2019-03-24T17:39:10.832Z,12.50
2019-03-24T17:44:12.871Z,12.30
2019-03-24T17:49:14.150Z,12.00
2019-03-24T17:54:15.272Z,11.70
2019-03-24T17:59:16.389Z,11.50
2019-03-24T18:04:24.857Z,11.20
2019-03-24T18:09:20.688Z,11.00
2019-03-24T18:14:21.917Z,10.80
2019-03-24T18:19:23.056Z,10.70
2019-03-24T18:24:24.359Z,10.80
2019-03-24T18:29:25.998Z,10.80
2019-03-24T18:34:27.574Z,10.80
2019-03-24T18:39:29.976Z,10.90
2019-03-24T18:44:31.620Z,10.90
2019-03-24T18:49:33.007Z,10.80
2019-03-24T18:54:34.296Z,10.60
2019-03-24T18:59:35.474Z,10.40
2019-03-24T19:04:36.811Z,10.10
2019-03-24T19:09:38.069Z,9.80
2019-03-24T19:14:40.174Z,9.80
2019-03-24T19:19:41.668Z,9.70
2019-03-24T19:24:42.954Z,9.70
2019-03-24T19:29:44.321Z,9.80
2019-03-24T19:34:45.710Z,9.90
2019-03-24T19:39:47.315Z,9.90
2019-03-24T19:44:48.623Z,9.70
2019-03-24T19:49:51.505Z,9.50
2019-03-24T19:54:52.829Z,9.20
2019-03-24T19:59:54.270Z,9.10
2019-03-24T20:04:55.748Z,8.80
2019-03-24T20:09:59.258Z,8.50
2019-03-24T20:15:00.524Z,8.40
2019-03-24T20:20:01.935Z,8.40
2019-03-24T20:25:05.613Z,8.20
2019-03-24T20:30:11.333Z,7.90
2019-03-24T20:35:12.621Z,7.70
2019-03-24T20:40:14.761Z,7.60
2019-03-24T20:45:16.279Z,7.60
2019-03-24T20:50:17.555Z,7.40
2019-03-24T20:55:18.750Z,8.50
2019-03-24T21:00:23.736Z,7.20
2019-03-24T21:05:24.954Z,7.10
2019-03-24T21:10:26.283Z,7.40
2019-03-24T21:15:27.404Z,6.90
2019-03-24T21:20:28.641Z,6.80
2019-03-24T21:25:29.776Z,6.80
2019-03-24T21:30:36.397Z,6.70
2019-03-24T21:35:38.477Z,6.60
2019-03-24T21:40:39.714Z,6.50
2019-03-24T21:45:41.204Z,6.50
2019-03-24T21:50:42.360Z,6.60
2019-03-24T21:55:43.475Z,6.90
2019-03-24T22:00:44.597Z,7.20
2019-03-24T22:05:46.272Z,7.30
2019-03-24T22:10:47.396Z,7.50
2019-03-24T22:15:48.577Z,7.60
2019-03-24T22:20:49.688Z,7.70
2019-03-24T22:25:50.813Z,7.70
2019-03-24T22:30:51.960Z,7.90
2019-03-24T22:35:53.145Z,8.00
2019-03-24T22:40:54.261Z,8.20
2019-03-24T22:45:55.376Z,8.20
2019-03-24T22:50:56.540Z,8.30
2019-03-24T22:55:57.631Z,8.40
2019-03-24T23:00:58.825Z,8.70
2019-03-24T23:05:59.946Z,9.20
2019-03-24T23:11:01.076Z,9.00
2019-03-24T23:16:02.293Z,9.10
2019-03-24T23:21:03.489Z,9.10
2019-03-24T23:26:04.619Z,9.10
2019-03-24T23:31:08.476Z,9.00
2019-03-24T23:36:09.577Z,9.00
2019-03-24T23:41:10.665Z,9.00
2019-03-24T23:46:11.783Z,8.90
2019-03-24T23:51:12.900Z,8.80
2019-03-24T23:56:14.232Z,8.80
